Time;durP1;ratioP1;P1;durP2;ratioP2;P2;SDS_P1;SDS_P2;PMS_P1;PMS_P2;Temp;Humidity;BMP_temperature;BMP_pressure;BME280_temperature;BME280_humidity;BME280_pressure;Samples;Min_cycle;Max_cycle;Signal;HPM_P1;HPM_P2
2022/12/05 00:00:46;;;;;;;7.57;5.28;;;;;;;15.97;100.00;102010.75;2076226;28;20049;-83
2022/12/05 00:02:08;;;;;;;10.27;5.15;;;;;;;15.97;100.00;102001.88;2087123;28;20052;-82
2022/12/05 00:03:29;;;;;;;9.52;5.40;;;;;;;15.96;100.00;101995.66;2093196;28;20052;-82
2022/12/05 00:04:52;;;;;;;8.93;5.00;;;;;;;15.97;100.00;101999.22;2081704;28;20139;-82
2022/12/05 00:06:15;;;;;;;6.57;4.82;;;;;;;15.97;100.00;101992.13;2076619;28;20096;-83
2022/12/05 00:07:37;;;;;;;6.78;4.88;;;;;;;15.97;100.00;101988.56;2073380;28;20444;-82
2022/12/05 00:09:02;;;;;;;10.82;4.78;;;;;;;15.97;100.00;101996.56;2090327;28;20101;-82
2022/12/05 00:10:25;;;;;;;10.88;5.90;;;;;;;15.98;100.00;101996.59;2087581;28;20049;-80
2022/12/05 00:11:46;;;;;;;7.75;4.78;;;;;;;15.98;100.00;101990.34;2092471;28;20470;-81
2022/12/05 00:13:09;;;;;;;8.43;5.07;;;;;;;15.99;100.00;101995.72;2101396;28;20051;-81
2022/12/05 00:14:31;;;;;;;9.35;6.05;;;;;;;15.99;100.00;101998.38;2106290;28;20044;-81
2022/12/05 00:15:53;;;;;;;8.45;5.88;;;;;;;16.00;100.00;101994.84;2094792;28;20048;-80
2022/12/05 00:17:15;;;;;;;16.67;8.50;;;;;;;16.00;100.00;101994.84;2092559;28;20036;-81
2022/12/05 00:18:37;;;;;;;12.63;8.02;;;;;;;16.01;100.00;101995.75;2092774;28;20119;-81
2022/12/05 00:19:59;;;;;;;9.80;5.35;;;;;;;16.01;100.00;101998.41;2102786;28;20055;-80
2022/12/05 00:21:22;;;;;;;10.50;4.88;;;;;;;16.01;100.00;101993.06;2103488;28;20059;-81
2022/12/05 00:22:45;;;;;;;8.93;5.45;;;;;;;16.01;100.00;102001.06;2097739;28;20037;-81
2022/12/05 00:24:11;;;;;;;9.27;6.30;;;;;;;16.03;100.00;101996.63;2103669;28;20063;-81
2022/12/05 00:25:36;;;;;;;9.40;4.80;;;;;;;16.02;100.00;102000.16;2103270;28;20480;-81
2022/12/05 00:26:59;;;;;;;9.25;5.22;;;;;;;16.02;100.00;102000.16;2104090;28;20055;-80
2022/12/05 00:28:21;;;;;;;8.88;5.38;;;;;;;16.03;100.00;101996.63;2089458;28;20061;-81
2022/12/05 00:29:44;;;;;;;6.70;4.50;;;;;;;16.02;100.00;102001.06;2084227;28;20060;-81
2022/12/05 00:31:07;;;;;;;8.70;5.40;;;;;;;16.03;100.00;101999.28;2092730;28;20048;-81
2022/12/05 00:32:30;;;;;;;9.20;5.30;;;;;;;16.02;100.00;102001.06;2090998;28;20091;-81
2022/12/05 00:33:52;;;;;;;9.02;5.15;;;;;;;16.02;100.00;102003.72;2085816;28;20044;-81
2022/12/05 00:35:15;;;;;;;9.07;6.20;;;;;;;16.03;100.00;101996.63;2107842;28;20052;-81
2022/12/05 00:36:37;;;;;;;9.85;6.72;;;;;;;16.02;100.00;101998.41;2105578;28;20129;-81
2022/12/05 00:38:00;;;;;;;12.43;6.88;;;;;;;16.02;100.00;101995.72;2097516;28;20443;-81
2022/12/05 00:39:24;;;;;;;16.02;9.93;;;;;;;16.03;100.00;101996.63;2097812;28;20106;-81
2022/12/05 00:40:45;;;;;;;18.80;10.20;;;;;;;16.03;100.00;101993.97;2095206;28;20200;-81
2022/12/05 00:42:07;;;;;;;11.85;6.50;;;;;;;16.03;100.00;101996.63;2094772;28;20174;-80
2022/12/05 00:43:29;;;;;;;9.82;5.43;;;;;;;16.02;100.00;101998.41;2099972;28;20423;-81
2022/12/05 00:44:51;;;;;;;6.40;4.55;;;;;;;16.03;100.00;101993.97;2095076;28;20056;-81
2022/12/05 00:46:15;;;;;;;9.63;4.88;;;;;;;16.05;100.00;101994.88;2101747;28;20071;-81
2022/12/05 00:47:37;;;;;;;7.82;4.82;;;;;;;16.03;100.00;101994.88;2094792;28;20048;-81
2022/12/05 00:49:00;;;;;;;14.88;7.22;;;;;;;16.05;100.00;102001.13;2099275;28;20055;-82
2022/12/05 00:50:23;;;;;;;12.55;5.45;;;;;;;16.06;100.00;101996.69;2098256;28;20127;-81
2022/12/05 00:51:44;;;;;;;9.98;5.10;;;;;;;16.06;100.00;101994.91;2095159;28;20044;-80
2022/12/05 00:53:06;;;;;;;9.70;4.45;;;;;;;16.06;100.00;101984.25;2099171;28;20063;-80
2022/12/05 00:54:30;;;;;;;8.27;5.45;;;;;;;16.07;100.00;101988.72;2103466;28;20134;-80
2022/12/05 00:55:52;;;;;;;12.55;6.43;;;;;;;16.07;100.00;101998.47;2101348;28;20517;-80
2022/12/05 00:57:14;;;;;;;11.77;5.57;;;;;;;16.06;100.00;101994.03;2098608;28;20064;-80
2022/12/05 00:58:36;;;;;;;9.35;5.53;;;;;;;16.07;100.00;101996.72;2094438;28;20052;-81
2022/12/05 00:59:59;;;;;;;9.02;4.63;;;;;;;16.08;100.00;101994.94;2086916;28;20053;-80
2022/12/05 01:01:22;;;;;;;9.18;5.47;;;;;;;16.10;100.00;101988.75;2097700;28;20051;-81
2022/12/05 01:02:45;;;;;;;11.82;6.40;;;;;;;16.09;100.00;101989.59;2088815;28;20049;-81
2022/12/05 01:04:10;;;;;;;10.88;5.10;;;;;;;16.10;100.00;101985.19;2095229;28;20061;-81
2022/12/05 01:05:34;;;;;;;8.60;4.68;;;;;;;16.10;100.00;101986.06;2095118;28;20059;-81
2022/12/05 01:06:57;;;;;;;8.27;4.93;;;;;;;16.10;100.00;101982.50;2101680;28;20464;-81
2022/12/05 01:08:20;;;;;;;8.20;5.03;;;;;;;16.09;100.00;101984.28;2096538;28;20044;-80
2022/12/05 01:09:44;;;;;;;11.13;5.55;;;;;;;16.09;100.00;101984.28;2086519;28;20048;-81
2022/12/05 01:11:06;;;;;;;10.55;5.57;;;;;;;16.10;100.00;101985.19;2092312;28;20060;-81
2022/12/05 01:12:29;;;;;;;12.18;5.45;;;;;;;16.08;100.00;101979.81;2094043;28;20037;-81
2022/12/05 01:13:51;;;;;;;9.32;4.85;;;;;;;16.08;100.00;101982.50;2089254;28;20053;-80
2022/12/05 01:15:13;;;;;;;9.63;4.88;;;;;;;16.08;100.00;101979.81;2100624;28;20062;-81
2022/12/05 01:16:37;;;;;;;7.93;4.85;;;;;;;16.08;100.00;101985.16;2102362;28;20097;-81
2022/12/05 01:17:59;;;;;;;7.60;4.80;;;;;;;16.07;100.00;101978.06;2094516;28;20076;-82
2022/12/05 01:19:23;;;;;;;7.47;4.20;;;;;;;16.08;100.00;101973.63;2092391;28;20040;-81
2022/12/05 01:20:46;;;;;;;9.77;5.18;;;;;;;16.08;100.00;101978.97;2100952;28;20032;-80
2022/12/05 01:22:08;;;;;;;9.55;4.65;;;;;;;16.08;100.00;101985.16;2094973;28;20041;-82
2022/12/05 01:23:30;;;;;;;7.88;4.75;;;;;;;16.08;100.00;101984.28;2100578;28;20044;-81
2022/12/05 01:24:54;;;;;;;8.23;5.10;;;;;;;16.09;100.00;101983.38;2094414;28;20175;-81
2022/12/05 01:26:18;;;;;;;9.55;5.38;;;;;;;16.08;100.00;101985.16;2103095;28;20052;-81
2022/12/05 01:27:40;;;;;;;7.88;4.72;;;;;;;16.07;100.00;101988.72;2097377;28;20151;-81
2022/12/05 01:29:02;;;;;;;8.95;4.90;;;;;;;16.07;100.00;101982.50;2086648;28;20041;-81
2022/12/05 01:30:24;;;;;;;10.98;4.57;;;;;;;16.09;100.00;101986.06;2092270;28;20040;-81
2022/12/05 01:31:47;;;;;;;9.10;5.22;;;;;;;16.08;100.00;101976.28;2093734;28;20105;-81
2022/12/05 01:33:09;;;;;;;7.47;4.63;;;;;;;16.09;100.00;101980.72;2100640;28;20052;-81
2022/12/05 01:34:31;;;;;;;8.25;4.75;;;;;;;16.08;100.00;101981.63;2103000;28;20047;-81
2022/12/05 01:35:53;;;;;;;7.97;4.60;;;;;;;16.07;100.00;101980.72;2097177;28;20048;-81
2022/12/05 01:37:15;;;;;;;10.93;6.70;;;;;;;16.08;100.00;101979.81;2102618;28;20036;-82
2022/12/05 01:38:37;;;;;;;10.23;6.90;;;;;;;16.10;100.00;101983.41;2086466;28;20073;-81
2022/12/05 01:40:02;;;;;;;11.13;7.13;;;;;;;16.10;100.00;101978.09;2094504;28;20543;-81
2022/12/05 01:41:26;;;;;;;10.48;7.35;;;;;;;16.10;100.00;101977.19;2093365;28;20056;-81
2022/12/05 01:42:49;;;;;;;10.93;5.97;;;;;;;16.10;100.00;101977.19;2092653;28;20032;-81
2022/12/05 01:44:45;;;;;;;16.20;7.28;;;;;;;16.09;100.00;101978.97;2086592;28;20048;-82
2022/12/05 01:46:07;;;;;;;8.55;5.82;;;;;;;16.08;100.00;101973.63;2097186;28;20048;-81
2022/12/05 01:47:30;;;;;;;11.65;5.07;;;;;;;16.08;100.00;101978.97;2094348;28;20040;-81
2022/12/05 01:49:01;;;;;;;8.60;5.57;;;;;;;16.10;100.00;101974.53;2103185;28;20051;-81
2022/12/05 01:50:22;;;;;;;8.88;6.03;;;;;;;16.09;100.00;101976.28;2088945;28;20134;-81
2022/12/05 01:51:47;;;;;;;11.10;6.30;;;;;;;16.07;100.00;101975.41;2091671;28;20044;-81
2022/12/05 01:53:08;;;;;;;10.45;6.68;;;;;;;16.08;100.00;101969.16;2095607;28;20041;-80
2022/12/05 01:54:31;;;;;;;9.48;6.32;;;;;;;16.07;100.00;101963.84;2089052;28;20441;-80
2022/12/05 01:55:56;;;;;;;15.77;6.40;;;;;;;16.08;100.00;101968.31;2097166;28;20057;-81
2022/12/05 01:57:17;;;;;;;9.60;5.78;;;;;;;16.08;100.00;101969.16;2098799;28;20089;-80
2022/12/05 01:58:42;;;;;;;7.07;5.70;;;;;;;16.09;100.00;101965.63;2090907;28;20052;-80
2022/12/05 02:00:09;;;;;;;12.57;6.30;;;;;;;16.11;100.00;101969.22;2097100;28;20075;-80
2022/12/05 02:01:34;;;;;;;9.70;6.30;;;;;;;16.11;100.00;101963.91;2095446;28;20040;-80
2022/12/05 02:03:00;;;;;;;8.95;5.93;;;;;;;16.11;100.00;101971.00;2094087;28;20105;-80
2022/12/05 02:04:22;;;;;;;11.65;6.57;;;;;;;16.11;100.00;101966.56;2086208;28;20041;-81
2022/12/05 02:05:48;;;;;;;8.98;5.93;;;;;;;16.12;100.00;101970.13;2083482;28;20068;-79
2022/12/05 02:07:09;;;;;;;9.75;6.43;;;;;;;16.11;100.00;101966.56;2092473;28;20067;-80
2022/12/05 02:08:32;;;;;;;9.77;5.30;;;;;;;16.11;100.00;101963.00;2085814;28;20064;-81
2022/12/05 02:09:54;;;;;;;10.57;5.07;;;;;;;16.13;100.00;101966.59;2094599;28;20044;-80
2022/12/05 02:11:18;;;;;;;8.80;4.80;;;;;;;16.12;100.00;101962.13;2101961;28;20044;-81
2022/12/05 02:12:41;;;;;;;7.97;4.70;;;;;;;16.12;100.00;101965.69;2091538;28;20052;-80
2022/12/05 02:14:20;;;;;;;8.98;5.15;;;;;;;16.13;100.00;101967.47;2086146;28;20049;-80
2022/12/05 02:15:49;;;;;;;7.97;4.93;;;;;;;16.12;100.00;101965.69;2088093;28;20087;-80
2022/12/05 02:17:16;;;;;;;8.05;5.22;;;;;;;16.11;100.00;101963.00;2086824;28;20630;-80
2022/12/05 02:18:52;;;;;;;9.00;4.55;;;;;;;16.10;100.00;101967.44;2094987;28;20094;-80
2022/12/05 02:20:29;;;;;;;7.13;4.85;;;;;;;16.10;100.00;101961.19;2093241;28;20098;-80
2022/12/05 02:22:20;;;;;;;9.60;5.15;;;;;;;16.08;100.00;101963.84;2088257;28;20135;-80
2022/12/05 02:24:18;;;;;;;9.18;5.55;;;;;;;16.08;100.00;101963.84;2105375;28;20032;-81
2022/12/05 02:26:12;;;;;;;10.52;5.60;;;;;;;16.06;100.00;101970.94;2094888;28;20036;-80
2022/12/05 02:27:54;;;;;;;12.05;7.03;;;;;;;16.06;100.00;101970.94;2085589;28;20528;-80
2022/12/05 02:29:46;;;;;;;10.10;6.97;;;;;;;16.05;100.00;101971.81;2088505;28;20049;-81
2022/12/05 02:31:14;;;;;;;8.45;4.97;;;;;;;16.05;100.00;101968.25;2080182;28;20431;-81
2022/12/05 02:32:49;;;;;;;8.82;6.03;;;;;;;16.06;100.00;101970.03;2076557;28;20144;-81
2022/12/05 02:34:21;;;;;;;8.95;5.78;;;;;;;16.06;100.00;101970.03;2079889;28;20041;-81
2022/12/05 02:35:54;;;;;;;11.13;6.18;;;;;;;16.06;100.00;101967.38;2091065;28;20442;-81
2022/12/05 02:37:22;;;;;;;9.20;4.97;;;;;;;16.05;100.00;101962.94;2092563;28;20047;-81
2022/12/05 02:38:51;;;;;;;7.00;4.38;;;;;;;16.06;100.00;101962.06;2078628;28;20036;-81
2022/12/05 02:40:20;;;;;;;9.50;4.55;;;;;;;16.05;100.00;101969.16;2085487;28;20041;-81
2022/12/05 02:41:51;;;;;;;9.18;4.50;;;;;;;16.06;100.00;101967.38;2087142;28;20556;-81
2022/12/05 02:43:16;;;;;;;9.98;5.00;;;;;;;16.07;100.00;101966.50;2085978;28;20048;-81
2022/12/05 02:44:44;;;;;;;8.63;6.03;;;;;;;16.08;100.00;101962.97;2091418;28;20081;-80
2022/12/05 02:46:12;;;;;;;10.73;5.45;;;;;;;16.08;100.00;101960.31;2078401;28;20037;-81
2022/12/05 02:47:39;;;;;;;8.88;5.40;;;;;;;16.08;100.00;101966.50;2094015;28;20048;-81
2022/12/05 02:49:07;;;;;;;8.77;4.38;;;;;;;16.09;100.00;101967.41;2084662;28;20455;-81
2022/12/05 02:50:34;;;;;;;6.90;4.45;;;;;;;16.07;100.00;101961.19;2086589;28;20127;-81
2022/12/05 02:51:58;;;;;;;9.25;4.47;;;;;;;16.08;100.00;101969.16;2076500;28;20115;-81
2022/12/05 02:53:22;;;;;;;9.02;5.10;;;;;;;16.07;100.00;101963.84;2075160;28;20505;-81
2022/12/05 02:54:48;;;;;;;8.30;4.57;;;;;;;16.07;100.00;101963.84;2091308;28;20085;-81
2022/12/05 02:56:10;;;;;;;7.68;4.10;;;;;;;16.05;100.00;101958.50;2094893;28;20052;-81
2022/12/05 02:57:34;;;;;;;8.15;4.78;;;;;;;16.05;100.00;101963.81;2084739;28;20037;-81
2022/12/05 02:58:57;;;;;;;8.65;4.50;;;;;;;16.03;100.00;101959.34;2086251;28;20049;-82
2022/12/05 03:00:21;;;;;;;8.50;4.80;;;;;;;16.04;100.00;101959.38;2093543;28;21115;-81
2022/12/05 03:01:44;;;;;;;9.10;4.80;;;;;;;16.03;100.00;101960.22;2093946;28;20064;-81
2022/12/05 03:03:14;;;;;;;9.20;4.07;;;;;;;16.03;100.00;101954.00;2082260;28;20057;-81
2022/12/05 03:04:38;;;;;;;8.70;3.92;;;;;;;16.02;100.00;101958.44;2094922;28;20048;-82
2022/12/05 03:06:05;;;;;;;10.40;4.80;;;;;;;16.03;100.00;101962.91;2092801;28;20044;-81
2022/12/05 03:07:31;;;;;;;9.13;5.00;;;;;;;16.02;100.00;101960.22;2094698;28;20064;-81
2022/12/05 03:08:56;;;;;;;7.15;3.95;;;;;;;16.02;100.00;101965.53;2094206;28;20048;-80
2022/12/05 03:10:26;;;;;;;8.15;4.68;;;;;;;16.02;100.00;101960.22;2086251;28;20143;-81
2022/12/05 03:11:52;;;;;;;8.63;5.10;;;;;;;16.02;100.00;101957.53;2084883;28;20074;-81
2022/12/05 03:13:18;;;;;;;8.73;5.40;;;;;;;16.02;100.00;101963.78;2081871;28;20064;-80
2022/12/05 03:14:46;;;;;;;9.02;5.03;;;;;;;16.02;100.00;101961.09;2078616;28;20124;-80
2022/12/05 03:16:14;;;;;;;9.32;5.13;;;;;;;16.02;100.00;101966.44;2092282;28;20155;-80
2022/12/05 03:17:42;;;;;;;8.23;5.18;;;;;;;16.01;100.00;101966.44;2085965;28;20044;-80
2022/12/05 03:19:12;;;;;;;9.27;5.07;;;;;;;16.00;100.00;101965.53;2093915;28;20057;-80
2022/12/05 03:20:40;;;;;;;10.15;5.50;;;;;;;16.01;100.00;101959.34;2081485;28;20583;-81
2022/12/05 03:22:06;;;;;;;8.38;5.18;;;;;;;16.02;100.00;101957.53;2101856;28;20650;-80
2022/12/05 03:23:33;;;;;;;10.00;5.22;;;;;;;16.00;100.00;101962.88;2081787;28;20053;-80
2022/12/05 03:24:55;;;;;;;7.97;5.43;;;;;;;16.01;100.00;101964.66;2090284;28;20561;-81
2022/12/05 03:26:29;;;;;;;10.45;5.70;;;;;;;16.01;100.00;101961.13;2087321;28;20041;-80
2022/12/05 03:27:58;;;;;;;11.02;5.85;;;;;;;16.00;100.00;101965.53;2097103;28;20067;-80
2022/12/05 03:29:30;;;;;;;10.43;5.93;;;;;;;16.02;100.00;101969.09;2081728;28;20052;-80
2022/12/05 03:30:54;;;;;;;10.02;5.25;;;;;;;16.01;100.00;101964.66;2087513;28;20140;-81
2022/12/05 03:32:24;;;;;;;8.18;5.38;;;;;;;16.02;100.00;101968.19;2086882;28;20060;-81
2022/12/05 03:33:49;;;;;;;8.65;5.38;;;;;;;16.02;100.00;101963.78;2093582;28;21838;-81
2022/12/05 03:35:17;;;;;;;8.85;5.00;;;;;;;16.04;100.00;101967.34;2094659;28;20091;-79
2022/12/05 03:36:43;;;;;;;8.77;5.47;;;;;;;16.05;100.00;101966.47;2095090;28;20052;-80
2022/12/05 03:38:11;;;;;;;9.93;5.60;;;;;;;16.05;100.00;101963.81;2087742;28;20085;-80
2022/12/05 03:39:38;;;;;;;8.25;5.53;;;;;;;16.06;100.00;101965.63;2085654;28;20036;-80
2022/12/05 03:41:09;;;;;;;8.95;5.57;;;;;;;16.07;100.00;101967.41;2085344;28;20117;-80
2022/12/05 03:42:34;;;;;;;9.95;5.45;;;;;;;16.06;100.00;101962.06;2080181;28;20192;-79
2022/12/05 03:44:01;;;;;;;8.80;5.93;;;;;;;16.07;100.00;101967.41;2079314;28;20062;-81
2022/12/05 03:45:32;;;;;;;9.52;5.55;;;;;;;16.07;100.00;101980.72;2091112;28;20455;-80
2022/12/05 03:47:01;;;;;;;9.50;5.90;;;;;;;16.06;100.00;101967.38;2087544;28;20461;-80
2022/12/05 03:48:31;;;;;;;11.63;6.32;;;;;;;16.06;100.00;101970.94;2086493;28;20045;-81
2022/12/05 03:49:57;;;;;;;8.60;5.78;;;;;;;16.06;100.00;101968.28;2082927;28;20045;-80
2022/12/05 03:51:24;;;;;;;12.85;7.00;;;;;;;16.06;100.00;101967.38;2093959;28;20102;-81
2022/12/05 03:52:50;;;;;;;9.30;6.38;;;;;;;16.05;100.00;101970.91;2083527;28;20075;-80
2022/12/05 03:54:19;;;;;;;14.13;9.05;;;;;;;16.05;100.00;101965.59;2079661;28;20107;-80
2022/12/05 03:55:43;;;;;;;16.85;9.27;;;;;;;16.04;100.00;101971.78;2089035;28;20085;-80
2022/12/05 03:57:11;;;;;;;18.00;9.77;;;;;;;16.05;100.00;101966.47;2095822;28;20047;-80
2022/12/05 03:58:40;;;;;;;14.75;8.68;;;;;;;16.06;100.00;101970.03;2093542;28;20033;-80
2022/12/05 04:00:04;;;;;;;10.52;6.85;;;;;;;16.07;100.00;101966.50;2096281;28;20452;-80
2022/12/05 04:01:31;;;;;;;11.98;6.85;;;;;;;16.07;100.00;101966.50;2097941;28;20230;-80
2022/12/05 04:02:57;;;;;;;11.30;6.57;;;;;;;16.07;100.00;101975.41;2092995;28;20396;-80
2022/12/05 04:04:26;;;;;;;11.57;7.00;;;;;;;16.08;100.00;101969.16;2098305;28;20048;-80
2022/12/05 04:05:53;;;;;;;10.85;6.57;;;;;;;16.09;100.00;101968.31;2087855;28;20479;-81
2022/12/05 04:07:17;;;;;;;10.48;5.78;;;;;;;16.08;100.00;101971.84;2093718;28;20101;-81
2022/12/05 04:08:44;;;;;;;10.85;5.45;;;;;;;16.08;100.00;101966.50;2087606;28;20068;-81
2022/12/05 04:10:11;;;;;;;8.55;5.28;;;;;;;16.10;100.00;101975.41;2093872;28;20541;-81
2022/12/05 04:11:43;;;;;;;9.05;6.22;;;;;;;16.10;100.00;101974.53;2095966;28;20044;-81
2022/12/05 04:13:16;;;;;;;8.27;6.15;;;;;;;16.10;100.00;101982.50;2086499;28;20488;-81
2022/12/05 04:14:42;;;;;;;9.77;5.05;;;;;;;16.10;100.00;101971.84;2097083;28;20090;-81
2022/12/05 04:17:55;;;;;;;13.23;5.90;;;;;;;16.10;100.00;101978.09;2097725;28;20052;-81
2022/12/05 04:19:25;;;;;;;10.00;6.00;;;;;;;16.10;100.00;101969.19;2081591;28;20041;-81
2022/12/05 04:22:28;;;;;;;11.13;6.55;;;;;;;16.10;100.00;101974.53;2097180;28;20048;-81
2022/12/05 04:25:31;;;;;;;;;;;;;;;16.05;100.00;101978.91;2103935;28;20113;-81
2022/12/05 04:25:38;;;;;;;10.10;6.22;;;;;;;16.06;100.00;101975.38;2095419;28;19979;-81
2022/12/05 04:27:09;;;;;;;11.15;7.72;;;;;;;16.07;100.00;101985.16;2093571;28;20059;-81
2022/12/05 04:28:37;;;;;;;11.20;6.93;;;;;;;16.08;100.00;101981.63;2096442;28;20486;-81
2022/12/05 04:30:04;;;;;;;12.02;7.38;;;;;;;16.08;100.00;101981.63;2083125;28;20064;-81
2022/12/05 04:31:32;;;;;;;13.02;7.28;;;;;;;16.09;100.00;101986.06;2094178;28;20475;-82
2022/12/05 04:33:03;;;;;;;11.30;6.75;;;;;;;16.08;100.00;101985.16;2104313;28;20074;-81
2022/12/05 04:34:28;;;;;;;13.73;7.45;;;;;;;16.09;100.00;101984.28;2093207;28;20041;-81
2022/12/05 04:35:55;;;;;;;14.43;8.80;;;;;;;16.09;100.00;101994.03;2091377;28;20095;-82
2022/12/05 04:37:22;;;;;;;11.65;6.68;;;;;;;16.10;100.00;101993.16;2092726;28;20040;-81
2022/12/05 04:38:50;;;;;;;9.63;6.03;;;;;;;16.09;100.00;101988.72;2083111;28;20136;-80
2022/12/05 04:40:19;;;;;;;8.93;6.00;;;;;;;16.10;100.00;101980.75;2089093;28;20044;-81
2022/12/05 04:41:44;;;;;;;9.30;6.47;;;;;;;16.11;100.00;101989.63;2086979;28;20060;-80
2022/12/05 04:43:09;;;;;;;12.57;6.82;;;;;;;16.11;100.00;101978.97;2098152;28;20055;-81
2022/12/05 04:44:36;;;;;;;11.02;6.65;;;;;;;16.12;100.00;101988.75;2103947;28;20071;-80
2022/12/05 04:46:00;;;;;;;12.02;5.70;;;;;;;16.12;100.00;101988.75;2096158;28;20048;-82
2022/12/05 04:47:26;;;;;;;9.68;7.07;;;;;;;16.13;100.00;101998.56;2101380;28;20052;-82
2022/12/05 04:48:52;;;;;;;9.48;6.15;;;;;;;16.12;100.00;101987.00;2094181;28;20032;-81
2022/12/05 04:50:18;;;;;;;7.57;5.57;;;;;;;16.11;100.00;101986.97;2092156;28;20077;-81
2022/12/05 04:51:43;;;;;;;13.10;8.15;;;;;;;16.12;100.00;101995.00;2084917;28;20041;-81
2022/12/05 04:53:08;;;;;;;10.55;6.43;;;;;;;16.13;100.00;101987.91;2103792;28;20576;-81
2022/12/05 04:54:34;;;;;;;11.13;6.28;;;;;;;16.13;100.00;101990.56;2102711;28;20059;-81
2022/12/05 04:55:59;;;;;;;10.20;6.20;;;;;;;16.15;100.00;101994.13;2091106;28;20546;-81
2022/12/05 04:57:25;;;;;;;9.00;6.43;;;;;;;16.14;100.00;101989.69;2086297;28;20080;-81
2022/12/05 04:58:48;;;;;;;17.90;10.68;;;;;;;16.13;100.00;101993.22;2095360;28;20051;-80
2022/12/05 05:00:10;;;;;;;10.13;7.40;;;;;;;16.16;100.00;101993.25;2087413;28;20049;-82
2022/12/05 05:01:36;;;;;;;;;;;;;;;16.11;100.00;101987.88;2086772;28;20103;-81
2022/12/05 05:03:06;;;;;;;12.85;6.80;;;;;;;16.13;100.00;101991.47;2095826;28;19924;-81
2022/12/05 05:04:35;;;;;;;11.27;6.35;;;;;;;16.14;100.00;101989.69;2096077;28;20084;-82
2022/12/05 05:05:58;;;;;;;12.13;6.70;;;;;;;16.14;100.00;101989.69;2095811;28;20081;-81
2022/12/05 05:07:21;;;;;;;9.88;6.72;;;;;;;16.16;100.00;101987.91;2089755;28;20060;-81
2022/12/05 05:08:48;;;;;;;10.63;6.40;;;;;;;16.15;100.00;101997.69;2076229;28;20095;-81
2022/12/05 05:10:15;;;;;;;14.35;8.65;;;;;;;16.15;100.00;101991.44;2084829;28;20091;-81
2022/12/05 05:11:38;;;;;;;13.20;7.72;;;;;;;16.13;100.00;101996.78;2093367;28;20052;-80
2022/12/05 05:13:00;;;;;;;12.52;7.75;;;;;;;16.14;100.00;101997.69;2096949;28;20056;-81
2022/12/05 05:14:23;;;;;;;9.32;5.63;;;;;;;16.13;100.00;102002.13;2094815;28;20044;-81
2022/12/05 05:15:44;;;;;;;9.48;7.05;;;;;;;16.14;100.00;101997.69;2092564;28;20053;-81
2022/12/05 05:17:06;;;;;;;14.10;6.82;;;;;;;16.15;100.00;101996.78;2103009;28;20080;-81
2022/12/05 05:18:28;;;;;;;12.30;6.57;;;;;;;16.13;100.00;101995.88;2101534;28;20063;-82
2022/12/05 05:19:50;;;;;;;13.20;6.75;;;;;;;16.14;100.00;101998.59;2094970;28;20413;-82
2022/12/05 05:21:20;;;;;;;10.07;5.63;;;;;;;16.15;100.00;101999.44;2095150;28;20416;-82
2022/12/05 05:22:41;;;;;;;13.55;9.10;;;;;;;16.15;100.00;102003.00;2095803;28;20113;-82
2022/12/05 05:24:04;;;;;;;15.43;9.38;;;;;;;16.15;100.00;102004.78;2086573;28;20148;-81
2022/12/05 05:25:26;;;;;;;15.82;8.93;;;;;;;16.16;100.00;101998.56;2092640;28;20424;-82
2022/12/05 05:26:48;;;;;;;11.95;7.00;;;;;;;16.17;100.00;101995.03;2086487;28;20040;-81
2022/12/05 05:28:10;;;;;;;14.50;8.30;;;;;;;16.17;100.00;102003.94;2086839;28;20056;-81
2022/12/05 05:29:32;;;;;;;11.90;8.18;;;;;;;16.18;100.00;102002.16;2092207;28;20036;-82
2022/12/05 05:30:55;;;;;;;12.40;8.02;;;;;;;16.18;100.00;101999.50;2091975;28;20055;-81
2022/12/05 05:32:18;;;;;;;12.45;7.43;;;;;;;16.18;100.00;102004.81;2086463;28;20041;-82
2022/12/05 05:33:41;;;;;;;15.25;9.48;;;;;;;16.17;100.00;102001.28;2084058;28;20065;-81
2022/12/05 05:35:04;;;;;;;13.73;7.18;;;;;;;16.17;100.00;102011.94;2084069;28;20055;-81
2022/12/05 05:36:28;;;;;;;15.25;7.25;;;;;;;16.19;100.00;102009.28;2092328;28;20106;-81
2022/12/05 05:37:51;;;;;;;12.15;8.15;;;;;;;16.19;100.00;102006.63;2087483;28;20113;-81
2022/12/05 05:39:15;;;;;;;17.75;10.93;;;;;;;16.20;100.00;102006.66;2091539;28;20044;-81
2022/12/05 05:40:37;;;;;;;13.95;10.68;;;;;;;16.21;100.00;102007.56;2098700;28;20076;-81
2022/12/05 05:42:00;;;;;;;16.20;10.85;;;;;;;16.22;100.00;102009.31;2092403;28;20052;-82
2022/12/05 05:43:22;;;;;;;12.35;8.57;;;;;;;16.23;100.00;102004.00;2091987;28;20056;-81
2022/12/05 05:44:45;;;;;;;12.32;7.03;;;;;;;16.25;100.00;102009.38;2098398;28;20085;-80
2022/12/05 05:46:06;;;;;;;11.07;5.47;;;;;;;16.27;100.00;102004.97;2103906;28;20046;-81
2022/12/05 05:47:29;;;;;;;11.10;6.85;;;;;;;16.27;100.00;102011.19;2087893;28;20049;-82
2022/12/05 05:48:52;;;;;;;8.38;6.13;;;;;;;16.28;100.00;102006.72;2085869;28;20240;-81
2022/12/05 05:50:14;;;;;;;11.02;6.20;;;;;;;16.29;100.00;102001.41;2094798;28;20036;-80
2022/12/05 05:51:37;;;;;;;9.27;6.20;;;;;;;16.31;100.00;102004.09;2093004;28;20052;-81
2022/12/05 05:53:00;;;;;;;7.88;4.53;;;;;;;16.32;100.00;102005.91;2088492;28;20040;-82
2022/12/05 05:54:22;;;;;;;10.65;5.40;;;;;;;16.32;100.00;102003.22;2089144;28;20049;-82
2022/12/05 05:55:44;;;;;;;9.90;4.70;;;;;;;16.33;100.00;102008.59;2086702;28;20040;-82
2022/12/05 05:57:07;;;;;;;9.65;5.85;;;;;;;16.34;100.00;102009.50;2089538;28;20036;-82
2022/12/05 05:58:29;;;;;;;8.98;5.38;;;;;;;16.37;100.00;102011.28;2088789;28;20052;-82
2022/12/05 05:59:52;;;;;;;8.13;5.15;;;;;;;16.39;100.00;102017.53;2086489;28;20060;-82
2022/12/05 06:01:17;;;;;;;14.38;5.78;;;;;;;16.40;100.00;102019.31;2095740;28;20416;-82
2022/12/05 06:02:40;;;;;;;10.52;5.80;;;;;;;16.38;100.00;102013.97;2098667;28;20082;-82
2022/12/05 06:04:03;;;;;;;10.43;5.82;;;;;;;16.42;100.00;102017.53;2098499;28;20080;-82
2022/12/05 06:05:25;;;;;;;16.77;9.07;;;;;;;16.43;100.00;102022.91;2086000;28;20453;-82
2022/12/05 06:06:49;;;;;;;14.70;7.97;;;;;;;16.45;100.00;102018.50;2093281;28;20049;-82
2022/12/05 06:08:11;;;;;;;15.05;8.00;;;;;;;16.48;100.00;102026.50;2094713;28;20464;-82
2022/12/05 06:09:33;;;;;;;13.60;6.68;;;;;;;16.51;100.00;102021.22;2100343;28;20442;-83
2022/12/05 06:10:55;;;;;;;12.43;6.72;;;;;;;16.55;100.00;102024.81;2093011;28;20186;-82
2022/12/05 06:12:17;;;;;;;12.55;7.28;;;;;;;16.58;100.00;102023.09;2089887;28;20078;-82
2022/12/05 06:13:40;;;;;;;17.38;9.88;;;;;;;16.60;100.00;102023.16;2091527;28;20524;-82
2022/12/05 06:15:05;;;;;;;14.98;10.52;;;;;;;16.63;100.00;102026.72;2092122;28;20471;-83
2022/12/05 06:16:28;;;;;;;15.45;7.72;;;;;;;16.66;100.00;102025.88;2098177;28;20064;-82
2022/12/05 06:17:50;;;;;;;12.45;7.43;;;;;;;16.67;100.00;102027.69;2093354;28;20036;-82
2022/12/05 06:19:13;;;;;;;9.40;6.03;;;;;;;16.67;100.00;102020.53;2099274;28;20063;-82
2022/12/05 06:20:35;;;;;;;9.90;4.45;;;;;;;16.69;100.00;102025.91;2094586;28;20419;-82
2022/12/05 06:21:59;;;;;;;10.05;5.28;;;;;;;16.71;100.00;102027.72;2091778;28;20064;-82
2022/12/05 06:23:26;;;;;;;11.43;6.95;;;;;;;16.74;100.00;102022.41;2095771;28;20119;-82
2022/12/05 06:24:49;;;;;;;9.55;5.75;;;;;;;16.76;100.00;102018.84;2085843;28;20152;-81
2022/12/05 06:26:11;;;;;;;7.10;4.20;;;;;;;16.77;100.00;102015.31;2096076;28;20044;-82
2022/12/05 06:27:35;;;;;;;10.20;4.88;;;;;;;16.78;100.00;102012.66;2101581;28;20048;-83
2022/12/05 06:28:57;;;;;;;9.32;4.40;;;;;;;16.80;100.00;102015.38;2094055;28;20117;-82
2022/12/05 06:30:19;;;;;;;12.50;5.65;;;;;;;16.82;100.00;102013.59;2085857;28;20140;-82
2022/12/05 06:31:42;;;;;;;9.27;5.10;;;;;;;16.83;100.00;102010.03;2096320;28;20036;-85
2022/12/05 06:33:04;;;;;;;9.35;4.95;;;;;;;16.84;100.00;102022.50;2085341;28;20053;-82
2022/12/05 06:34:26;;;;;;;10.00;4.40;;;;;;;16.84;100.00;102014.50;2089138;28;20063;-82